Airfield :
LOGIN :

Register | Disclaimer

   EN    FR    IT 

 










Legend :    VFR   Marginal VFR   IFR   Intensive IFR   Very Intensive IFR
Visi :
Ceiling :
>= 8 km
>= 3000ft
5 to 8 km
1000 to 3000 ft
1500m to 5 km
500 to 1000 ft
800 to 1500m
200 to 500 ft
< 800m
< 200 ft
Symbols :   Thunderstorms  Fog  Heavy snow  Heavy precipitations  Wind > 20 kt
SIGMETs :     Misc.  Thunderstorms  Icing  Turbulence  Mountain Waves  Volcanic Ashes






- Airport Elevation : 291 ft
- IATA code : ORY


LFPO - Paris-Orly

CURRENT METAR :
  • 251600Z 14004KT CAVOK 11/06 Q1016 NOSIG

EXPIRED METARs :
  • 251530Z 14004KT CAVOK 12/07 Q1016 NOSIG
  • 251500Z 17004KT CAVOK 12/07 Q1016 NOSIG
  • 251430Z 17004KT 9999 FEW032 12/07 Q1016 NOSIG

TAF TAF LFPO
Valid from the 25 at 12:00 until the 26 at 18:00 UTC


251100Z 2512/2618 18006KT 9999 BKN036
BECMG 2513/2515 CAVOK
TEMPO 2522/2524 4000 MIFG
BECMG 2600/2602 3500 BR
TEMPO 2600/2610 0800 FG OVC002
PROB40
TEMPO 2604/2609 0200 FG VV///
TEMPO 2613/2617 8000 NSC
ATIS : +33 1 49 75 65 80



MET'MAP, your aeronautical weather chart ! - Copyright ORBIFLY December 2007 - Disclaimer

ORBIFLY MET'MAP TEAM :

Programming & Development : Alexandra Zaïnal
Concept & original design : Baudouin d'Aumeries
Assistance for programming : Marc-Olivier Méhu
Technical & hardware support : Manuel Goepfert

Contact : metmap@orbifly.com




SOURCES & CREDITS :

   NOAA